sensor_id;sensor_type;location;lat;lon;timestamp;P1;durP1;ratioP1;P2;durP2;ratioP2
52984;SDS011;40499;47.830;19.026;2022-10-19T00:03:31;12.82;;;7.85;;
52984;SDS011;40499;47.830;19.026;2022-10-19T00:05:58;14.80;;;7.60;;
52984;SDS011;40499;47.830;19.026;2022-10-19T00:08:23;14.50;;;7.57;;
52984;SDS011;40499;47.830;19.026;2022-10-19T00:10:49;16.15;;;7.53;;
52984;SDS011;40499;47.830;19.026;2022-10-19T00:13:14;12.73;;;7.68;;
52984;SDS011;40499;47.830;19.026;2022-10-19T00:15:40;14.02;;;7.88;;
52984;SDS011;40499;47.830;19.026;2022-10-19T00:18:06;15.82;;;7.53;;
52984;SDS011;40499;47.830;19.026;2022-10-19T00:20:32;12.15;;;7.18;;
52984;SDS011;40499;47.830;19.026;2022-10-19T00:22:57;11.88;;;7.18;;
52984;SDS011;40499;47.830;19.026;2022-10-19T00:25:23;11.45;;;6.63;;
52984;SDS011;40499;47.830;19.026;2022-10-19T00:27:48;11.55;;;6.93;;
52984;SDS011;40499;47.830;19.026;2022-10-19T00:30:14;9.82;;;6.57;;
52984;SDS011;40499;47.830;19.026;2022-10-19T00:32:39;13.25;;;6.93;;
52984;SDS011;40499;47.830;19.026;2022-10-19T00:35:04;10.23;;;6.25;;
52984;SDS011;40499;47.830;19.026;2022-10-19T00:37:30;11.55;;;6.85;;
52984;SDS011;40499;47.830;19.026;2022-10-19T00:39:56;10.70;;;6.97;;
52984;SDS011;40499;47.830;19.026;2022-10-19T00:42:21;12.63;;;7.28;;
52984;SDS011;40499;47.830;19.026;2022-10-19T00:47:11;10.95;;;7.25;;
52984;SDS011;40499;47.830;19.026;2022-10-19T00:49:38;10.25;;;6.47;;
52984;SDS011;40499;47.830;19.026;2022-10-19T00:52:08;12.40;;;6.72;;
52984;SDS011;40499;47.830;19.026;2022-10-19T00:54:40;12.85;;;6.53;;
52984;SDS011;40499;47.830;19.026;2022-10-19T00:57:07;12.05;;;7.00;;
52984;SDS011;40499;47.830;19.026;2022-10-19T00:59:33;11.10;;;6.95;;
52984;SDS011;40499;47.830;19.026;2022-10-19T01:02:01;11.80;;;6.85;;
52984;SDS011;40499;47.830;19.026;2022-10-19T01:04:28;13.68;;;6.93;;
52984;SDS011;40499;47.830;19.026;2022-10-19T01:06:56;11.77;;;7.07;;
52984;SDS011;40499;47.830;19.026;2022-10-19T01:09:23;14.07;;;7.05;;
52984;SDS011;40499;47.830;19.026;2022-10-19T01:17:28;12.38;;;7.07;;
52984;SDS011;40499;47.830;19.026;2022-10-19T01:20:29;13.05;;;7.47;;
52984;SDS011;40499;47.830;19.026;2022-10-19T01:23:21;11.20;;;5.97;;
52984;SDS011;40499;47.830;19.026;2022-10-19T01:26:09;15.75;;;6.93;;
52984;SDS011;40499;47.830;19.026;2022-10-19T01:39:37;8.52;;;5.30;;
52984;SDS011;40499;47.830;19.026;2022-10-19T01:45:09;12.13;;;6.32;;
52984;SDS011;40499;47.830;19.026;2022-10-19T01:50:30;12.82;;;7.00;;
52984;SDS011;40499;47.830;19.026;2022-10-19T01:53:18;11.68;;;6.70;;
52984;SDS011;40499;47.830;19.026;2022-10-19T01:55:46;9.85;;;6.10;;
52984;SDS011;40499;47.830;19.026;2022-10-19T01:58:15;16.00;;;7.60;;
52984;SDS011;40499;47.830;19.026;2022-10-19T02:00:48;12.68;;;6.47;;
52984;SDS011;40499;47.830;19.026;2022-10-19T02:03:16;16.65;;;7.13;;
52984;SDS011;40499;47.830;19.026;2022-10-19T02:05:43;12.57;;;6.85;;
52984;SDS011;40499;47.830;19.026;2022-10-19T02:08:12;14.40;;;6.55;;
52984;SDS011;40499;47.830;19.026;2022-10-19T02:10:44;13.93;;;6.75;;
52984;SDS011;40499;47.830;19.026;2022-10-19T02:13:11;12.43;;;6.65;;
52984;SDS011;40499;47.830;19.026;2022-10-19T02:15:39;13.18;;;7.05;;
52984;SDS011;40499;47.830;19.026;2022-10-19T02:18:07;14.40;;;6.88;;
52984;SDS011;40499;47.830;19.026;2022-10-19T02:20:35;13.55;;;6.72;;
52984;SDS011;40499;47.830;19.026;2022-10-19T02:23:02;16.23;;;7.63;;
52984;SDS011;40499;47.830;19.026;2022-10-19T02:25:29;14.63;;;7.55;;
52984;SDS011;40499;47.830;19.026;2022-10-19T02:27:55;16.65;;;7.68;;
52984;SDS011;40499;47.830;19.026;2022-10-19T02:30:20;12.18;;;6.97;;
52984;SDS011;40499;47.830;19.026;2022-10-19T02:32:46;11.82;;;7.72;;
52984;SDS011;40499;47.830;19.026;2022-10-19T02:35:12;12.52;;;7.57;;
52984;SDS011;40499;47.830;19.026;2022-10-19T02:37:38;14.52;;;7.57;;
52984;SDS011;40499;47.830;19.026;2022-10-19T02:40:05;11.85;;;7.15;;
52984;SDS011;40499;47.830;19.026;2022-10-19T02:42:32;14.98;;;7.70;;
52984;SDS011;40499;47.830;19.026;2022-10-19T02:47:40;15.40;;;8.40;;
52984;SDS011;40499;47.830;19.026;2022-10-19T02:50:09;12.98;;;8.40;;
52984;SDS011;40499;47.830;19.026;2022-10-19T02:52:36;14.13;;;7.80;;
52984;SDS011;40499;47.830;19.026;2022-10-19T02:55:02;12.45;;;8.02;;
52984;SDS011;40499;47.830;19.026;2022-10-19T02:57:29;22.60;;;9.07;;
52984;SDS011;40499;47.830;19.026;2022-10-19T02:59:56;19.38;;;8.35;;
52984;SDS011;40499;47.830;19.026;2022-10-19T03:02:22;18.33;;;9.35;;
52984;SDS011;40499;47.830;19.026;2022-10-19T03:04:47;19.17;;;7.70;;
52984;SDS011;40499;47.830;19.026;2022-10-19T03:07:13;18.13;;;8.65;;
52984;SDS011;40499;47.830;19.026;2022-10-19T03:09:41;14.13;;;7.80;;
52984;SDS011;40499;47.830;19.026;2022-10-19T03:12:07;14.38;;;8.55;;
52984;SDS011;40499;47.830;19.026;2022-10-19T03:14:33;14.90;;;8.60;;
52984;SDS011;40499;47.830;19.026;2022-10-19T03:16:58;16.23;;;8.55;;
52984;SDS011;40499;47.830;19.026;2022-10-19T03:19:24;15.70;;;8.27;;
52984;SDS011;40499;47.830;19.026;2022-10-19T03:21:49;15.98;;;8.48;;
52984;SDS011;40499;47.830;19.026;2022-10-19T03:24:15;15.57;;;7.60;;
52984;SDS011;40499;47.830;19.026;2022-10-19T03:26:41;14.50;;;8.10;;
52984;SDS011;40499;47.830;19.026;2022-10-19T03:29:06;15.38;;;7.57;;
52984;SDS011;40499;47.830;19.026;2022-10-19T03:31:32;17.45;;;7.93;;
52984;SDS011;40499;47.830;19.026;2022-10-19T03:33:58;14.23;;;8.23;;
52984;SDS011;40499;47.830;19.026;2022-10-19T03:38:54;15.10;;;7.80;;
52984;SDS011;40499;47.830;19.026;2022-10-19T03:41:25;18.85;;;8.55;;
52984;SDS011;40499;47.830;19.026;2022-10-19T03:43:52;20.13;;;8.52;;
52984;SDS011;40499;47.830;19.026;2022-10-19T03:46:18;13.65;;;7.47;;
52984;SDS011;40499;47.830;19.026;2022-10-19T03:48:43;14.68;;;8.85;;
52984;SDS011;40499;47.830;19.026;2022-10-19T03:51:10;16.42;;;9.32;;
52984;SDS011;40499;47.830;19.026;2022-10-19T03:53:38;14.43;;;8.45;;
52984;SDS011;40499;47.830;19.026;2022-10-19T03:58:31;16.08;;;9.52;;
52984;SDS011;40499;47.830;19.026;2022-10-19T04:00:57;14.35;;;8.70;;
52984;SDS011;40499;47.830;19.026;2022-10-19T04:03:23;15.00;;;8.77;;
52984;SDS011;40499;47.830;19.026;2022-10-19T04:05:48;17.02;;;8.63;;
52984;SDS011;40499;47.830;19.026;2022-10-19T04:08:14;12.68;;;7.47;;
52984;SDS011;40499;47.830;19.026;2022-10-19T04:10:39;19.38;;;8.40;;
52984;SDS011;40499;47.830;19.026;2022-10-19T04:13:04;13.57;;;7.68;;
52984;SDS011;40499;47.830;19.026;2022-10-19T04:15:30;16.20;;;8.43;;
52984;SDS011;40499;47.830;19.026;2022-10-19T04:17:55;15.05;;;8.55;;
52984;SDS011;40499;47.830;19.026;2022-10-19T04:20:20;17.15;;;7.97;;
52984;SDS011;40499;47.830;19.026;2022-10-19T04:22:47;11.43;;;7.20;;
52984;SDS011;40499;47.830;19.026;2022-10-19T04:25:12;11.55;;;7.28;;
52984;SDS011;40499;47.830;19.026;2022-10-19T04:27:37;14.80;;;8.77;;
52984;SDS011;40499;47.830;19.026;2022-10-19T04:30:03;13.93;;;8.52;;
52984;SDS011;40499;47.830;19.026;2022-10-19T04:32:29;12.95;;;8.10;;
52984;SDS011;40499;47.830;19.026;2022-10-19T04:34:54;12.52;;;7.72;;
52984;SDS011;40499;47.830;19.026;2022-10-19T04:37:20;10.75;;;6.70;;
52984;SDS011;40499;47.830;19.026;2022-10-19T04:43:05;12.18;;;6.93;;
52984;SDS011;40499;47.830;19.026;2022-10-19T04:45:31;15.48;;;6.82;;
52984;SDS011;40499;47.830;19.026;2022-10-19T04:48:27;18.02;;;7.03;;
52984;SDS011;40499;47.830;19.026;2022-10-19T04:54:25;18.27;;;7.13;;
52984;SDS011;40499;47.830;19.026;2022-10-19T04:57:21;12.45;;;7.30;;
52984;SDS011;40499;47.830;19.026;2022-10-19T04:59:55;14.52;;;7.55;;
52984;SDS011;40499;47.830;19.026;2022-10-19T05:02:25;18.30;;;7.63;;
52984;SDS011;40499;47.830;19.026;2022-10-19T05:05:16;15.80;;;8.65;;
52984;SDS011;40499;47.830;19.026;2022-10-19T05:07:42;11.93;;;8.05;;
52984;SDS011;40499;47.830;19.026;2022-10-19T05:10:29;11.00;;;7.22;;
52984;SDS011;40499;47.830;19.026;2022-10-19T05:13:07;16.98;;;8.25;;
52984;SDS011;40499;47.830;19.026;2022-10-19T05:16:24;13.27;;;8.20;;
52984;SDS011;40499;47.830;19.026;2022-10-19T05:19:19;15.25;;;8.13;;
52984;SDS011;40499;47.830;19.026;2022-10-19T05:22:09;13.75;;;8.35;;
52984;SDS011;40499;47.830;19.026;2022-10-19T05:25:10;12.70;;;7.45;;
52984;SDS011;40499;47.830;19.026;2022-10-19T05:28:04;13.30;;;7.65;;
52984;SDS011;40499;47.830;19.026;2022-10-19T05:30:52;15.07;;;7.85;;
52984;SDS011;40499;47.830;19.026;2022-10-19T05:33:41;13.95;;;7.90;;
52984;SDS011;40499;47.830;19.026;2022-10-19T05:36:11;15.30;;;8.23;;
52984;SDS011;40499;47.830;19.026;2022-10-19T05:38:36;14.20;;;8.07;;
52984;SDS011;40499;47.830;19.026;2022-10-19T05:41:02;19.05;;;8.40;;
52984;SDS011;40499;47.830;19.026;2022-10-19T05:43:27;14.98;;;9.65;;
52984;SDS011;40499;47.830;19.026;2022-10-19T05:45:53;14.75;;;8.93;;
52984;SDS011;40499;47.830;19.026;2022-10-19T05:48:18;14.68;;;8.27;;
52984;SDS011;40499;47.830;19.026;2022-10-19T05:50:52;14.30;;;8.05;;
52984;SDS011;40499;47.830;19.026;2022-10-19T05:53:18;15.48;;;8.35;;
52984;SDS011;40499;47.830;19.026;2022-10-19T05:55:44;15.20;;;8.98;;
52984;SDS011;40499;47.830;19.026;2022-10-19T05:58:09;16.25;;;9.27;;
52984;SDS011;40499;47.830;19.026;2022-10-19T06:00:34;22.27;;;12.35;;
52984;SDS011;40499;47.830;19.026;2022-10-19T06:03:00;23.23;;;12.48;;
52984;SDS011;40499;47.830;19.026;2022-10-19T06:05:25;27.58;;;12.30;;
52984;SDS011;40499;47.830;19.026;2022-10-19T06:07:50;19.33;;;9.95;;
52984;SDS011;40499;47.830;19.026;2022-10-19T06:10:16;18.75;;;11.30;;
52984;SDS011;40499;47.830;19.026;2022-10-19T06:12:41;19.55;;;10.45;;
52984;SDS011;40499;47.830;19.026;2022-10-19T06:15:07;19.70;;;12.10;;
52984;SDS011;40499;47.830;19.026;2022-10-19T06:17:32;20.70;;;11.10;;
52984;SDS011;40499;47.830;19.026;2022-10-19T06:19:57;18.92;;;11.00;;
52984;SDS011;40499;47.830;19.026;2022-10-19T06:22:23;19.67;;;11.60;;
52984;SDS011;40499;47.830;19.026;2022-10-19T06:24:48;18.35;;;9.90;;
52984;SDS011;40499;47.830;19.026;2022-10-19T06:27:14;20.73;;;10.32;;
52984;SDS011;40499;47.830;19.026;2022-10-19T06:29:40;25.92;;;10.77;;
52984;SDS011;40499;47.830;19.026;2022-10-19T06:32:05;25.77;;;11.02;;
52984;SDS011;40499;47.830;19.026;2022-10-19T06:34:30;19.20;;;11.10;;
52984;SDS011;40499;47.830;19.026;2022-10-19T06:36:56;18.73;;;10.27;;
52984;SDS011;40499;47.830;19.026;2022-10-19T06:39:21;22.27;;;11.60;;
52984;SDS011;40499;47.830;19.026;2022-10-19T06:41:46;17.45;;;10.13;;
52984;SDS011;40499;47.830;19.026;2022-10-19T06:44:12;19.70;;;10.90;;
52984;SDS011;40499;47.830;19.026;2022-10-19T06:46:37;22.00;;;10.55;;
52984;SDS011;40499;47.830;19.026;2022-10-19T06:49:02;15.15;;;9.48;;
52984;SDS011;40499;47.830;19.026;2022-10-19T06:51:28;16.90;;;9.88;;
52984;SDS011;40499;47.830;19.026;2022-10-19T06:53:58;15.65;;;10.10;;
52984;SDS011;40499;47.830;19.026;2022-10-19T06:56:23;18.13;;;10.65;;
52984;SDS011;40499;47.830;19.026;2022-10-19T06:58:49;16.30;;;9.63;;
52984;SDS011;40499;47.830;19.026;2022-10-19T07:01:15;15.95;;;10.32;;
52984;SDS011;40499;47.830;19.026;2022-10-19T07:03:40;20.75;;;10.57;;
52984;SDS011;40499;47.830;19.026;2022-10-19T07:06:08;18.90;;;10.50;;
52984;SDS011;40499;47.830;19.026;2022-10-19T07:08:36;19.30;;;10.75;;
52984;SDS011;40499;47.830;19.026;2022-10-19T07:11:04;15.52;;;9.52;;
52984;SDS011;40499;47.830;19.026;2022-10-19T07:13:31;16.95;;;9.73;;
52984;SDS011;40499;47.830;19.026;2022-10-19T07:15:58;21.58;;;10.68;;
52984;SDS011;40499;47.830;19.026;2022-10-19T07:18:27;17.58;;;10.20;;
52984;SDS011;40499;47.830;19.026;2022-10-19T07:20:57;15.43;;;10.10;;
52984;SDS011;40499;47.830;19.026;2022-10-19T07:24:00;15.00;;;9.50;;
52984;SDS011;40499;47.830;19.026;2022-10-19T07:26:35;16.55;;;9.60;;
52984;SDS011;40499;47.830;19.026;2022-10-19T07:29:45;17.13;;;9.10;;
52984;SDS011;40499;47.830;19.026;2022-10-19T07:32:27;14.77;;;8.43;;
52984;SDS011;40499;47.830;19.026;2022-10-19T07:34:59;19.52;;;7.85;;
52984;SDS011;40499;47.830;19.026;2022-10-19T07:38:01;13.90;;;8.02;;
52984;SDS011;40499;47.830;19.026;2022-10-19T07:43:17;11.73;;;7.32;;
52984;SDS011;40499;47.830;19.026;2022-10-19T07:45:49;14.73;;;7.97;;
52984;SDS011;40499;47.830;19.026;2022-10-19T07:48:15;12.95;;;8.48;;
52984;SDS011;40499;47.830;19.026;2022-10-19T07:50:42;13.15;;;7.47;;
52984;SDS011;40499;47.830;19.026;2022-10-19T07:53:12;13.13;;;6.82;;
52984;SDS011;40499;47.830;19.026;2022-10-19T07:55:38;15.85;;;7.82;;
52984;SDS011;40499;47.830;19.026;2022-10-19T07:58:06;13.48;;;7.55;;
52984;SDS011;40499;47.830;19.026;2022-10-19T08:00:32;13.15;;;7.10;;
52984;SDS011;40499;47.830;19.026;2022-10-19T08:02:57;12.23;;;6.68;;
52984;SDS011;40499;47.830;19.026;2022-10-19T08:05:23;11.20;;;7.07;;
52984;SDS011;40499;47.830;19.026;2022-10-19T08:07:48;10.95;;;6.50;;
52984;SDS011;40499;47.830;19.026;2022-10-19T08:10:14;10.73;;;5.97;;
52984;SDS011;40499;47.830;19.026;2022-10-19T08:12:42;12.25;;;6.93;;
52984;SDS011;40499;47.830;19.026;2022-10-19T08:15:08;7.60;;;5.38;;
52984;SDS011;40499;47.830;19.026;2022-10-19T08:17:34;9.90;;;6.18;;
52984;SDS011;40499;47.830;19.026;2022-10-19T08:20:03;11.98;;;6.07;;
52984;SDS011;40499;47.830;19.026;2022-10-19T08:22:33;10.43;;;5.95;;
52984;SDS011;40499;47.830;19.026;2022-10-19T08:25:04;11.52;;;5.95;;
52984;SDS011;40499;47.830;19.026;2022-10-19T08:27:30;8.50;;;5.43;;
52984;SDS011;40499;47.830;19.026;2022-10-19T08:29:56;8.90;;;5.28;;
52984;SDS011;40499;47.830;19.026;2022-10-19T08:32:27;10.90;;;5.80;;
52984;SDS011;40499;47.830;19.026;2022-10-19T08:34:52;10.27;;;5.28;;
52984;SDS011;40499;47.830;19.026;2022-10-19T08:37:17;10.95;;;5.40;;
52984;SDS011;40499;47.830;19.026;2022-10-19T08:39:43;7.85;;;4.60;;
52984;SDS011;40499;47.830;19.026;2022-10-19T08:42:15;9.77;;;4.72;;
52984;SDS011;40499;47.830;19.026;2022-10-19T08:50:20;6.80;;;4.07;;
52984;SDS011;40499;47.830;19.026;2022-10-19T08:59:07;5.90;;;3.45;;
52984;SDS011;40499;47.830;19.026;2022-10-19T09:04:11;6.85;;;3.55;;
52984;SDS011;40499;47.830;19.026;2022-10-19T09:09:32;4.93;;;3.17;;
52984;SDS011;40499;47.830;19.026;2022-10-19T09:12:25;6.95;;;3.00;;
52984;SDS011;40499;47.830;19.026;2022-10-19T09:15:51;5.75;;;2.92;;
52984;SDS011;40499;47.830;19.026;2022-10-19T09:18:43;5.32;;;2.95;;
52984;SDS011;40499;47.830;19.026;2022-10-19T09:21:36;6.60;;;3.20;;
52984;SDS011;40499;47.830;19.026;2022-10-19T09:24:39;5.63;;;3.00;;
52984;SDS011;40499;47.830;19.026;2022-10-19T09:27:42;4.35;;;2.72;;
52984;SDS011;40499;47.830;19.026;2022-10-19T09:30:22;7.22;;;2.67;;
52984;SDS011;40499;47.830;19.026;2022-10-19T09:33:07;8.98;;;2.70;;
52984;SDS011;40499;47.830;19.026;2022-10-19T09:36:19;11.20;;;3.60;;
52984;SDS011;40499;47.830;19.026;2022-10-19T09:38:57;6.07;;;2.17;;
52984;SDS011;40499;47.830;19.026;2022-10-19T09:41:50;4.55;;;1.98;;
52984;SDS011;40499;47.830;19.026;2022-10-19T09:44:32;3.63;;;1.13;;
52984;SDS011;40499;47.830;19.026;2022-10-19T09:52:53;1.48;;;0.90;;
52984;SDS011;40499;47.830;19.026;2022-10-19T09:55:52;1.00;;;0.70;;
52984;SDS011;40499;47.830;19.026;2022-10-19T09:58:28;2.10;;;0.88;;
52984;SDS011;40499;47.830;19.026;2022-10-19T10:00:54;1.60;;;1.02;;
52984;SDS011;40499;47.830;19.026;2022-10-19T10:03:31;3.22;;;1.08;;
52984;SDS011;40499;47.830;19.026;2022-10-19T10:08:47;4.25;;;1.10;;
52984;SDS011;40499;47.830;19.026;2022-10-19T10:11:23;1.80;;;0.98;;
52984;SDS011;40499;47.830;19.026;2022-10-19T10:13:55;2.53;;;1.02;;
52984;SDS011;40499;47.830;19.026;2022-10-19T10:16:27;2.78;;;1.02;;
52984;SDS011;40499;47.830;19.026;2022-10-19T10:18:55;3.55;;;0.73;;
52984;SDS011;40499;47.830;19.026;2022-10-19T10:21:27;2.85;;;0.85;;
52984;SDS011;40499;47.830;19.026;2022-10-19T10:26:26;1.50;;;0.63;;
52984;SDS011;40499;47.830;19.026;2022-10-19T10:28:52;1.67;;;0.80;;
52984;SDS011;40499;47.830;19.026;2022-10-19T10:31:18;0.95;;;0.50;;
52984;SDS011;40499;47.830;19.026;2022-10-19T10:33:51;1.48;;;0.57;;
52984;SDS011;40499;47.830;19.026;2022-10-19T10:36:25;2.47;;;0.85;;
52984;SDS011;40499;47.830;19.026;2022-10-19T10:38:56;2.25;;;0.77;;
52984;SDS011;40499;47.830;19.026;2022-10-19T10:41:27;2.97;;;0.70;;
52984;SDS011;40499;47.830;19.026;2022-10-19T10:44:01;0.90;;;0.50;;
52984;SDS011;40499;47.830;19.026;2022-10-19T10:47:14;1.40;;;0.82;;
52984;SDS011;40499;47.830;19.026;2022-10-19T10:49:22;1.27;;;0.70;;
52984;SDS011;40499;47.830;19.026;2022-10-19T10:51:51;1.13;;;0.63;;
52984;SDS011;40499;47.830;19.026;2022-10-19T10:54:22;1.15;;;0.52;;
52984;SDS011;40499;47.830;19.026;2022-10-19T10:57:25;0.80;;;0.40;;
52984;SDS011;40499;47.830;19.026;2022-10-19T11:05:16;1.48;;;0.80;;
52984;SDS011;40499;47.830;19.026;2022-10-19T11:07:44;1.63;;;0.55;;
52984;SDS011;40499;47.830;19.026;2022-10-19T11:10:23;1.08;;;0.60;;
52984;SDS011;40499;47.830;19.026;2022-10-19T11:12:55;1.10;;;0.77;;
52984;SDS011;40499;47.830;19.026;2022-10-19T11:15:46;1.83;;;0.75;;
52984;SDS011;40499;47.830;19.026;2022-10-19T11:18:16;4.80;;;0.80;;
52984;SDS011;40499;47.830;19.026;2022-10-19T11:20:52;1.35;;;0.52;;
52984;SDS011;40499;47.830;19.026;2022-10-19T11:35:11;10.60;;;1.15;;
52984;SDS011;40499;47.830;19.026;2022-10-19T11:46:11;1.65;;;0.80;;
52984;SDS011;40499;47.830;19.026;2022-10-19T11:49:07;0.85;;;0.52;;
52984;SDS011;40499;47.830;19.026;2022-10-19T11:51:57;3.83;;;0.95;;
52984;SDS011;40499;47.830;19.026;2022-10-19T12:02:39;1.77;;;0.80;;
52984;SDS011;40499;47.830;19.026;2022-10-19T12:05:13;1.60;;;0.63;;
52984;SDS011;40499;47.830;19.026;2022-10-19T12:13:49;3.42;;;0.90;;
52984;SDS011;40499;47.830;19.026;2022-10-19T12:16:18;1.20;;;0.85;;
52984;SDS011;40499;47.830;19.026;2022-10-19T12:18:50;1.40;;;0.70;;
52984;SDS011;40499;47.830;19.026;2022-10-19T12:21:25;1.73;;;0.88;;
52984;SDS011;40499;47.830;19.026;2022-10-19T12:23:55;1.27;;;0.90;;
52984;SDS011;40499;47.830;19.026;2022-10-19T12:26:22;1.00;;;0.57;;
52984;SDS011;40499;47.830;19.026;2022-10-19T12:28:52;2.45;;;0.73;;
52984;SDS011;40499;47.830;19.026;2022-10-19T12:31:21;2.33;;;0.70;;
52984;SDS011;40499;47.830;19.026;2022-10-19T12:36:46;1.80;;;0.85;;
52984;SDS011;40499;47.830;19.026;2022-10-19T12:39:41;1.13;;;0.73;;
52984;SDS011;40499;47.830;19.026;2022-10-19T12:47:20;1.83;;;1.10;;
52984;SDS011;40499;47.830;19.026;2022-10-19T12:49:48;1.33;;;0.65;;
52984;SDS011;40499;47.830;19.026;2022-10-19T12:55:42;0.85;;;0.60;;
52984;SDS011;40499;47.830;19.026;2022-10-19T12:57:56;1.67;;;0.65;;
52984;SDS011;40499;47.830;19.026;2022-10-19T13:00:56;2.45;;;0.80;;
52984;SDS011;40499;47.830;19.026;2022-10-19T13:03:22;2.28;;;0.57;;
52984;SDS011;40499;47.830;19.026;2022-10-19T13:05:55;0.98;;;0.68;;
52984;SDS011;40499;47.830;19.026;2022-10-19T13:08:39;1.10;;;0.80;;
52984;SDS011;40499;47.830;19.026;2022-10-19T13:11:17;1.70;;;0.82;;
52984;SDS011;40499;47.830;19.026;2022-10-19T13:21:43;1.90;;;0.60;;
52984;SDS011;40499;47.830;19.026;2022-10-19T13:29:26;1.77;;;0.75;;
52984;SDS011;40499;47.830;19.026;2022-10-19T13:43:16;5.50;;;1.30;;
52984;SDS011;40499;47.830;19.026;2022-10-19T13:45:52;2.78;;;1.30;;
52984;SDS011;40499;47.830;19.026;2022-10-19T13:48:23;4.25;;;1.00;;
52984;SDS011;40499;47.830;19.026;2022-10-19T13:51:13;9.13;;;1.40;;
52984;SDS011;40499;47.830;19.026;2022-10-19T13:53:44;4.03;;;0.55;;
52984;SDS011;40499;47.830;19.026;2022-10-19T14:08:12;6.65;;;0.60;;
52984;SDS011;40499;47.830;19.026;2022-10-19T14:13:43;1.63;;;0.88;;
52984;SDS011;40499;47.830;19.026;2022-10-19T14:16:16;2.75;;;1.17;;
52984;SDS011;40499;47.830;19.026;2022-10-19T14:18:51;2.00;;;1.00;;
52984;SDS011;40499;47.830;19.026;2022-10-19T14:21:22;2.47;;;1.15;;
52984;SDS011;40499;47.830;19.026;2022-10-19T14:23:54;4.13;;;1.15;;
52984;SDS011;40499;47.830;19.026;2022-10-19T14:26:20;2.67;;;1.33;;
52984;SDS011;40499;47.830;19.026;2022-10-19T14:28:51;3.28;;;0.70;;
52984;SDS011;40499;47.830;19.026;2022-10-19T14:31:19;3.60;;;1.30;;
52984;SDS011;40499;47.830;19.026;2022-10-19T14:33:49;3.28;;;1.30;;
52984;SDS011;40499;47.830;19.026;2022-10-19T14:36:17;3.10;;;0.82;;
52984;SDS011;40499;47.830;19.026;2022-10-19T14:38:45;4.28;;;1.50;;
52984;SDS011;40499;47.830;19.026;2022-10-19T14:41:29;2.25;;;1.25;;
52984;SDS011;40499;47.830;19.026;2022-10-19T14:43:58;1.77;;;0.90;;
52984;SDS011;40499;47.830;19.026;2022-10-19T14:46:31;4.40;;;0.98;;
52984;SDS011;40499;47.830;19.026;2022-10-19T14:48:59;3.22;;;1.25;;
52984;SDS011;40499;47.830;19.026;2022-10-19T14:51:34;3.78;;;1.17;;
52984;SDS011;40499;47.830;19.026;2022-10-19T14:56:46;5.10;;;1.52;;
52984;SDS011;40499;47.830;19.026;2022-10-19T14:59:19;4.35;;;1.20;;
52984;SDS011;40499;47.830;19.026;2022-10-19T15:01:48;3.22;;;1.05;;
52984;SDS011;40499;47.830;19.026;2022-10-19T15:04:21;1.67;;;1.10;;
52984;SDS011;40499;47.830;19.026;2022-10-19T15:06:49;3.85;;;1.17;;
52984;SDS011;40499;47.830;19.026;2022-10-19T15:09:21;2.55;;;1.08;;
52984;SDS011;40499;47.830;19.026;2022-10-19T15:11:52;1.55;;;0.90;;
52984;SDS011;40499;47.830;19.026;2022-10-19T15:14:25;1.60;;;1.02;;
52984;SDS011;40499;47.830;19.026;2022-10-19T15:16:55;5.72;;;1.40;;
52984;SDS011;40499;47.830;19.026;2022-10-19T15:24:32;3.75;;;1.25;;
52984;SDS011;40499;47.830;19.026;2022-10-19T15:27:09;3.17;;;1.20;;
52984;SDS011;40499;47.830;19.026;2022-10-19T15:29:52;3.03;;;1.30;;
52984;SDS011;40499;47.830;19.026;2022-10-19T15:32:36;2.67;;;1.30;;
52984;SDS011;40499;47.830;19.026;2022-10-19T15:35:09;4.45;;;1.10;;
52984;SDS011;40499;47.830;19.026;2022-10-19T15:37:37;2.22;;;1.45;;
52984;SDS011;40499;47.830;19.026;2022-10-19T15:40:11;5.15;;;1.10;;
52984;SDS011;40499;47.830;19.026;2022-10-19T15:42:43;3.35;;;1.30;;
52984;SDS011;40499;47.830;19.026;2022-10-19T15:45:29;6.55;;;2.35;;
52984;SDS011;40499;47.830;19.026;2022-10-19T15:50:48;4.68;;;1.75;;
52984;SDS011;40499;47.830;19.026;2022-10-19T15:53:16;3.97;;;1.80;;
52984;SDS011;40499;47.830;19.026;2022-10-19T15:55:42;5.15;;;1.35;;
52984;SDS011;40499;47.830;19.026;2022-10-19T15:58:10;2.83;;;1.92;;
52984;SDS011;40499;47.830;19.026;2022-10-19T16:00:37;4.15;;;1.20;;
52984;SDS011;40499;47.830;19.026;2022-10-19T16:03:02;5.32;;;1.67;;
52984;SDS011;40499;47.830;19.026;2022-10-19T16:05:28;4.50;;;1.63;;
52984;SDS011;40499;47.830;19.026;2022-10-19T16:07:53;6.75;;;1.90;;
52984;SDS011;40499;47.830;19.026;2022-10-19T16:10:23;4.53;;;1.50;;
52984;SDS011;40499;47.830;19.026;2022-10-19T16:12:49;3.53;;;2.20;;
52984;SDS011;40499;47.830;19.026;2022-10-19T16:15:19;4.57;;;2.38;;
52984;SDS011;40499;47.830;19.026;2022-10-19T16:17:50;5.90;;;2.63;;
52984;SDS011;40499;47.830;19.026;2022-10-19T16:20:18;6.53;;;1.77;;
52984;SDS011;40499;47.830;19.026;2022-10-19T16:22:44;4.90;;;2.10;;
52984;SDS011;40499;47.830;19.026;2022-10-19T16:25:10;3.80;;;1.83;;
52984;SDS011;40499;47.830;19.026;2022-10-19T16:27:36;2.53;;;1.42;;
52984;SDS011;40499;47.830;19.026;2022-10-19T16:30:02;3.17;;;1.70;;
52984;SDS011;40499;47.830;19.026;2022-10-19T16:32:28;3.50;;;1.60;;
52984;SDS011;40499;47.830;19.026;2022-10-19T16:34:53;4.93;;;2.45;;
52984;SDS011;40499;47.830;19.026;2022-10-19T16:37:19;5.47;;;1.73;;
52984;SDS011;40499;47.830;19.026;2022-10-19T16:39:44;3.72;;;1.63;;
52984;SDS011;40499;47.830;19.026;2022-10-19T16:42:10;4.03;;;1.90;;
52984;SDS011;40499;47.830;19.026;2022-10-19T16:44:35;4.90;;;1.85;;
52984;SDS011;40499;47.830;19.026;2022-10-19T16:47:00;3.42;;;1.42;;
52984;SDS011;40499;47.830;19.026;2022-10-19T16:49:26;5.55;;;1.67;;
52984;SDS011;40499;47.830;19.026;2022-10-19T16:51:51;3.63;;;1.75;;
52984;SDS011;40499;47.830;19.026;2022-10-19T16:54:16;3.08;;;1.75;;
52984;SDS011;40499;47.830;19.026;2022-10-19T16:56:45;3.42;;;1.80;;
52984;SDS011;40499;47.830;19.026;2022-10-19T16:59:13;2.97;;;1.75;;
52984;SDS011;40499;47.830;19.026;2022-10-19T17:01:40;4.05;;;1.70;;
52984;SDS011;40499;47.830;19.026;2022-10-19T17:04:08;3.78;;;1.90;;
52984;SDS011;40499;47.830;19.026;2022-10-19T17:06:33;5.18;;;1.70;;
52984;SDS011;40499;47.830;19.026;2022-10-19T17:08:59;3.28;;;1.98;;
52984;SDS011;40499;47.830;19.026;2022-10-19T17:11:28;3.97;;;2.03;;
52984;SDS011;40499;47.830;19.026;2022-10-19T17:13:56;3.38;;;1.63;;
52984;SDS011;40499;47.830;19.026;2022-10-19T17:16:24;4.20;;;1.90;;
52984;SDS011;40499;47.830;19.026;2022-10-19T17:18:52;5.88;;;1.90;;
52984;SDS011;40499;47.830;19.026;2022-10-19T17:21:19;3.85;;;2.35;;
52984;SDS011;40499;47.830;19.026;2022-10-19T17:23:46;3.83;;;2.03;;
52984;SDS011;40499;47.830;19.026;2022-10-19T17:26:16;5.95;;;2.10;;
52984;SDS011;40499;47.830;19.026;2022-10-19T17:28:42;5.65;;;2.67;;
52984;SDS011;40499;47.830;19.026;2022-10-19T17:31:08;5.13;;;2.70;;
52984;SDS011;40499;47.830;19.026;2022-10-19T17:33:38;4.20;;;1.63;;
52984;SDS011;40499;47.830;19.026;2022-10-19T17:36:15;4.90;;;1.73;;
52984;SDS011;40499;47.830;19.026;2022-10-19T17:38:44;3.45;;;2.00;;
52984;SDS011;40499;47.830;19.026;2022-10-19T17:41:11;4.43;;;1.75;;
52984;SDS011;40499;47.830;19.026;2022-10-19T17:43:39;6.65;;;3.17;;